aviador You're here:

KDMO Decoded Metar

SEDALIA in MO, USA
Report Time2018-02-19 11:53:00
UTC Time2018-02-19 11:57:48
Flight Rules mvfr MVFR
Wind190° at 19 Gusting to 27 kt
W.Decomp.*RWY 18: 18.9 kt HW 2.3 kt RCW
RWY 23: 13.9 kt HW 13 kt LCW
W.Rank190° ranks 2
Current wind is above 190° avg. (9.4)
Visibility9999 m
Phenomena:N/A
Clouds:Overcast 022 Hf
Expected CloudBase > 1,200 ft AGL from Temp-Dew spread
Ceiling2,200 ft
Temp17°C (ISA +4)
Dew Point14°C (83% RH)
AAT11.5°C
QNH1006 hPa
Density Alt1,798 ft
Elevation899 ft
Report Wrong Elevation
Raw Report
METAR KDMO 191153Z AUTO 19019G27KT 10SM OVC022 17/14 A2972 RMK AO2
PK WND 20028/1127 SLP060 T01670144 10167 20122 56005=

Extra information for KDMO:More info

Metar Taf Metar & Taf Last 4 Metars F.Rules Stats Wind Profile Meteogram Temp Stats Airport Information Weather charts Add Link Nearby VenuesMetar ALERT Operation Metar Decoded Social comments

AIRNAV info for KDMO